createdAt,value
2023-02-18T00:05:39.248Z,2.2
2023-02-18T00:20:48.984Z,3.1
2023-02-18T00:35:58.706Z,2.5
2023-02-18T00:51:08.535Z,2.6
2023-02-18T01:06:18.140Z,2.5
2023-02-18T01:21:27.576Z,2.7
2023-02-18T01:36:37.177Z,2.4
2023-02-18T01:51:46.422Z,2.2
2023-02-18T02:06:55.644Z,2.9
2023-02-18T02:22:05.288Z,2.2
2023-02-18T02:37:15.527Z,3.2
2023-02-18T02:52:25.245Z,3
2023-02-18T03:07:35.167Z,3.8
2023-02-18T03:22:44.835Z,3.2
2023-02-18T03:37:54.517Z,4.4
2023-02-18T03:53:04.242Z,7.4
2023-02-18T04:08:13.967Z,10.6
2023-02-18T04:23:23.120Z,10.3
2023-02-18T04:38:33.039Z,7.7
2023-02-18T04:53:42.432Z,7.8
2023-02-18T05:08:52.278Z,8.7
2023-02-18T05:24:02.143Z,8.8
2023-02-18T05:39:14.705Z,9.2
2023-02-18T05:55:26.720Z,12.3
2023-02-18T06:10:37.069Z,11.1
2023-02-18T06:25:46.428Z,12.9
2023-02-18T06:40:55.830Z,18.6
2023-02-18T06:56:05.310Z,24.3
2023-02-18T07:11:14.684Z,25.7
2023-02-18T07:26:24.540Z,25.3
2023-02-18T07:41:34.157Z,23.6
2023-02-18T07:56:44.035Z,17.7
2023-02-18T08:11:54.276Z,11.8
2023-02-18T08:27:03.920Z,8
2023-02-18T08:42:13.644Z,5.8
2023-02-18T08:57:23.235Z,5.6
2023-02-18T09:12:32.947Z,3.9
2023-02-18T09:27:42.717Z,3.2
2023-02-18T09:42:52.092Z,2.1
2023-02-18T09:58:01.734Z,2.1
2023-02-18T10:13:11.558Z,2.1
2023-02-18T10:28:21.235Z,2
2023-02-18T10:43:30.384Z,1.5
2023-02-18T10:58:39.406Z,1.7
2023-02-18T11:13:48.671Z,2
2023-02-18T11:28:58.325Z,2.1
2023-02-18T11:44:08.059Z,2.9
2023-02-18T11:59:17.481Z,2.9
2023-02-18T12:14:27.420Z,2.5
2023-02-18T12:29:37.817Z,2.6
2023-02-18T12:44:47.336Z,2.5
2023-02-18T12:59:57.185Z,3.5
2023-02-18T13:15:06.257Z,3.6
2023-02-18T13:30:15.982Z,2.8
2023-02-18T13:45:26.559Z,4
2023-02-18T14:00:36.148Z,3.3
2023-02-18T14:15:46.190Z,3.9
2023-02-18T14:30:56.159Z,4.7
2023-02-18T14:46:06.598Z,5.4
2023-02-18T15:01:16.713Z,5.6
2023-02-18T15:16:26.711Z,4.9
2023-02-18T15:31:36.678Z,5.5
2023-02-18T15:46:46.640Z,6.3
2023-02-18T16:01:58.918Z,5.8
2023-02-18T16:17:09.110Z,6.2
2023-02-18T16:32:19.046Z,6.5
2023-02-18T16:47:29.184Z,4.8
2023-02-18T17:02:38.469Z,5.3
2023-02-18T17:17:47.829Z,4.6
2023-02-18T17:32:57.284Z,4.1
2023-02-18T17:48:06.897Z,4.9
2023-02-18T18:04:56.716Z,4.8
2023-02-18T18:20:06.972Z,3.7
2023-02-18T18:35:16.295Z,4.4
2023-02-18T18:50:26.166Z,4.3
2023-02-18T19:05:35.473Z,3.3
2023-02-18T19:20:45.182Z,3.7
2023-02-18T19:35:55.316Z,3.9
2023-02-18T19:51:04.692Z,4.9
2023-02-18T20:06:15.186Z,3.9
2023-02-18T20:21:25.147Z,3.8
2023-02-18T20:36:34.623Z,4.9
2023-02-18T20:51:44.704Z,4.3
2023-02-18T21:06:56.562Z,5.6
2023-02-18T21:22:06.358Z,4.4
2023-02-18T21:37:16.350Z,5.9
2023-02-18T21:52:26.387Z,6.2
2023-02-18T22:07:35.986Z,5.8
2023-02-18T22:22:45.675Z,6.5
2023-02-18T22:37:55.281Z,6.4
2023-02-18T22:53:04.514Z,10.4
2023-02-18T23:08:14.527Z,10.4
2023-02-18T23:23:24.135Z,14.3
2023-02-18T23:38:33.790Z,10.8
2023-02-18T23:53:43.565Z,13.8
